Time;durP1;ratioP1;P1;durP2;ratioP2;P2;SDS_P1;SDS_P2;PMS_P1;PMS_P2;Temp;Humidity;BMP_temperature;BMP_pressure;BME280_temperature;BME280_humidity;BME280_pressure;Samples;Min_cycle;Max_cycle;Signal;HPM_P1;HPM_P2
2023/07/30 00:01:53;;;;;;;1.50;1.05;;;;;;;20.43;95.77;100008.75;5003828;28;20087;-65
2023/07/30 00:04:19;;;;;;;3.15;1.40;;;;;;;20.45;96.11;100005.59;5007045;28;20060;-63
2023/07/30 00:06:44;;;;;;;1.42;1.10;;;;;;;20.56;95.63;100003.28;5072634;28;20034;-63
2023/07/30 00:09:10;;;;;;;5.07;1.30;;;;;;;20.53;95.39;100009.63;5001895;28;20029;-64
2023/07/30 00:11:35;;;;;;;2.05;1.05;;;;;;;20.42;95.63;100009.22;5006931;28;20034;-64
2023/07/30 00:14:01;;;;;;;2.17;1.17;;;;;;;20.52;95.76;100010.81;5009255;28;20034;-64
2023/07/30 00:16:26;;;;;;;2.60;1.00;;;;;;;20.49;95.47;100017.19;5010632;28;20091;-64
2023/07/30 00:18:52;;;;;;;1.67;1.10;;;;;;;20.42;97.14;100014.69;5008075;28;20038;-66
2023/07/30 00:21:17;;;;;;;2.45;1.05;;;;;;;20.40;97.51;100022.56;5086184;28;20034;-61
2023/07/30 00:23:43;;;;;;;1.02;0.82;;;;;;;20.43;97.62;100024.41;5009792;28;20038;-63
2023/07/30 00:26:08;;;;;;;3.58;1.40;;;;;;;20.49;97.57;100033.59;5010665;28;20043;-64
2023/07/30 00:28:33;;;;;;;1.58;1.13;;;;;;;20.50;97.48;100018.72;5069197;28;20076;-62
2023/07/30 00:30:59;;;;;;;1.75;1.10;;;;;;;20.52;97.58;100027.25;5008961;28;20090;-63
2023/07/30 00:33:24;;;;;;;1.85;1.00;;;;;;;20.50;96.99;100043.34;5002379;28;20109;-63
2023/07/30 00:35:53;;;;;;;1.52;1.20;;;;;;;20.56;96.95;100047.06;5008381;28;20044;-66
2023/07/30 00:38:19;;;;;;;1.63;1.08;;;;;;;20.33;98.22;100033.69;5066789;28;20038;-65
2023/07/30 00:40:44;;;;;;;1.50;1.08;;;;;;;20.31;98.86;100039.59;5008316;28;20774;-64
2023/07/30 00:43:10;;;;;;;1.45;1.10;;;;;;;20.34;98.50;100040.72;5071136;28;20095;-64
2023/07/30 00:45:38;;;;;;;1.92;1.25;;;;;;;20.42;98.12;100031.09;5001653;28;20030;-65
2023/07/30 00:48:04;;;;;;;2.67;1.30;;;;;;;20.39;97.96;100026.47;5005992;28;20400;-64
2023/07/30 00:50:30;;;;;;;2.28;1.17;;;;;;;20.44;98.05;100023.97;5010160;28;20447;-65
2023/07/30 00:52:57;;;;;;;1.48;1.02;;;;;;;20.38;97.43;100031.19;5064804;28;20030;-65
2023/07/30 00:55:22;;;;;;;1.77;1.20;;;;;;;20.38;98.02;100035.91;5000966;28;20030;-64
2023/07/30 00:57:48;;;;;;;1.67;1.33;;;;;;;20.40;97.96;100025.28;5028748;28;20090;-65
2023/07/30 01:00:14;;;;;;;2.00;1.23;;;;;;;20.37;98.36;100029.66;5009921;28;20056;-64
2023/07/30 01:02:39;;;;;;;1.20;0.90;;;;;;;20.38;98.60;100030.44;5008888;28;20532;-65
2023/07/30 01:05:05;;;;;;;1.90;1.05;;;;;;;20.35;98.28;100015.66;5069618;28;20405;-65
2023/07/30 01:07:31;;;;;;;1.63;0.93;;;;;;;20.29;97.68;100011.91;5005163;28;20056;-64
2023/07/30 01:09:58;;;;;;;1.77;1.10;;;;;;;20.11;98.94;100005.41;5006629;28;20034;-64
2023/07/30 01:12:24;;;;;;;1.98;1.30;;;;;;;20.11;99.59;100011.63;5007394;28;20022;-65
2023/07/30 01:14:50;;;;;;;1.58;0.95;;;;;;;20.21;99.41;100015.31;5074188;28;20029;-63
2023/07/30 01:17:16;;;;;;;2.40;1.10;;;;;;;20.06;97.92;100001.25;5004737;28;20053;-65
2023/07/30 01:19:42;;;;;;;1.58;1.13;;;;;;;20.02;99.07;100003.31;5077184;28;20033;-65
2023/07/30 01:22:08;;;;;;;2.00;1.27;;;;;;;20.15;98.94;100014.28;5076462;28;20038;-65
2023/07/30 01:24:33;;;;;;;3.10;1.63;;;;;;;20.26;98.36;100009.28;5069434;28;20022;-65
2023/07/30 01:27:02;;;;;;;2.03;1.20;;;;;;;20.35;98.02;100009.41;5078703;28;20030;-64
2023/07/30 01:29:40;;;;;;;1.98;1.30;;;;;;;20.22;98.39;100016.84;5001453;28;20042;-64
2023/07/30 01:32:08;;;;;;;2.42;1.35;;;;;;;20.32;98.48;100019.28;5008613;28;20034;-63
2023/07/30 01:34:35;;;;;;;2.03;1.42;;;;;;;20.42;98.19;100020.16;5056456;28;20026;-64
2023/07/30 01:37:02;;;;;;;4.65;1.67;;;;;;;20.42;97.94;100026.38;5009387;28;20032;-64
2023/07/30 01:39:28;;;;;;;2.30;1.42;;;;;;;20.40;98.20;100034.25;5006205;28;20562;-64
2023/07/30 01:41:54;;;;;;;2.22;1.17;;;;;;;20.37;98.72;100023.41;5008008;28;20033;-63
2023/07/30 01:44:20;;;;;;;1.98;1.13;;;;;;;20.41;98.04;100018.59;5076348;28;20037;-64
2023/07/30 01:46:46;;;;;;;1.48;0.95;;;;;;;20.43;97.78;100024.41;5006036;28;21186;-65
2023/07/30 01:49:11;;;;;;;1.40;1.10;;;;;;;20.25;97.94;100027.66;5009165;28;20025;-64
2023/07/30 01:51:37;;;;;;;1.92;1.08;;;;;;;20.19;98.57;100034.88;5008638;28;20057;-64
2023/07/30 01:54:02;;;;;;;2.45;1.25;;;;;;;20.14;98.62;100031.88;5008605;28;20037;-65
2023/07/30 01:56:28;;;;;;;1.33;1.08;;;;;;;20.07;98.45;100030.13;5003488;28;20036;-65
2023/07/30 01:58:54;;;;;;;1.88;1.20;;;;;;;20.00;98.29;100024.06;5055831;28;20410;-65
2023/07/30 02:01:19;;;;;;;1.50;1.10;;;;;;;20.06;97.96;100019.59;5066646;28;20400;-64
2023/07/30 02:03:45;;;;;;;1.55;1.00;;;;;;;20.12;97.00;100040.53;5004530;28;20054;-64
2023/07/30 02:06:11;;;;;;;1.52;1.13;;;;;;;20.05;97.72;100029.81;5046041;28;20099;-64
2023/07/30 02:08:36;;;;;;;2.63;1.17;;;;;;;19.99;97.78;100031.53;5006436;28;20032;-65
2023/07/30 02:11:02;;;;;;;1.25;1.10;;;;;;;19.90;98.07;100014.97;5005501;28;20034;-64
2023/07/30 02:13:28;;;;;;;1.42;1.15;;;;;;;19.90;98.53;100014.97;5035287;28;20021;-63
2023/07/30 02:15:53;;;;;;;1.48;1.05;;;;;;;20.01;97.19;100011.97;5076847;28;20061;-65
2023/07/30 02:18:19;;;;;;;2.80;1.00;;;;;;;19.98;97.93;100010.06;5008333;28;20452;-64
2023/07/30 02:20:45;;;;;;;1.58;1.40;;;;;;;19.97;98.26;100012.06;5041544;28;20045;-65
2023/07/30 02:23:10;;;;;;;1.38;0.90;;;;;;;20.11;96.51;100010.88;5043738;28;20025;-64
2023/07/30 02:25:37;;;;;;;3.25;1.67;;;;;;;20.06;96.94;100012.19;5076534;28;20030;-65
2023/07/30 02:28:02;;;;;;;1.73;1.20;;;;;;;19.83;97.56;100004.25;5006203;28;20451;-63
2023/07/30 02:30:28;;;;;;;2.97;2.15;;;;;;;19.72;98.66;100004.53;5078496;28;20041;-65
2023/07/30 02:32:54;;;;;;;1.08;0.98;;;;;;;19.69;98.38;100005.41;5064693;28;20022;-64
2023/07/30 02:35:19;;;;;;;1.45;1.25;;;;;;;19.71;98.82;100005.75;5075934;28;20037;-65
2023/07/30 02:37:45;;;;;;;1.30;1.10;;;;;;;19.79;97.99;100009.06;5064093;28;20037;-64
2023/07/30 02:40:11;;;;;;;3.30;1.40;;;;;;;19.72;98.68;100007.28;5038939;28;20156;-65
2023/07/30 02:42:36;;;;;;;1.23;0.95;;;;;;;19.69;99.27;100010.88;5055770;28;20439;-64
2023/07/30 02:45:02;;;;;;;1.98;1.10;;;;;;;19.77;99.04;100019.66;5074073;28;20026;-65
2023/07/30 02:47:27;;;;;;;1.85;1.20;;;;;;;19.75;98.49;100027.50;5012811;28;20034;-65
2023/07/30 02:49:53;;;;;;;2.97;1.23;;;;;;;19.72;98.98;100028.38;5009129;28;20067;-65
2023/07/30 02:52:18;;;;;;;3.40;1.13;;;;;;;19.70;99.17;100030.78;5068310;28;20060;-65
2023/07/30 02:54:44;;;;;;;1.48;0.93;;;;;;;19.68;99.24;100030.44;5058025;28;20099;-64
2023/07/30 02:57:10;;;;;;;3.47;1.40;;;;;;;19.74;98.56;100032.19;5003529;28;20083;-64
2023/07/30 02:59:37;;;;;;;2.10;1.38;;;;;;;19.74;98.58;100032.19;5008428;28;20061;-64
2023/07/30 03:02:05;;;;;;;1.90;1.08;;;;;;;19.71;98.50;100035.81;5075302;28;21090;-64
2023/07/30 03:04:31;;;;;;;2.65;1.25;;;;;;;19.69;98.94;100043.66;5082516;28;20406;-64
2023/07/30 03:06:56;;;;;;;2.90;1.42;;;;;;;19.64;99.09;100046.94;5007820;28;20030;-63
2023/07/30 03:09:22;;;;;;;2.53;1.48;;;;;;;19.64;99.57;100040.69;5051646;28;20034;-63
2023/07/30 03:11:49;;;;;;;2.45;1.45;;;;;;;19.61;99.84;100038.81;5005088;28;20113;-64
2023/07/30 03:14:14;;;;;;;3.78;1.23;;;;;;;19.69;98.99;100049.13;5001447;28;20033;-64
2023/07/30 03:16:40;;;;;;;1.65;1.05;;;;;;;19.63;98.90;100050.06;5063447;28;20040;-64
2023/07/30 03:19:05;;;;;;;1.40;1.02;;;;;;;19.60;99.23;100043.53;4999919;28;20022;-64
2023/07/30 03:21:31;;;;;;;1.60;1.20;;;;;;;19.55;99.42;100046.78;5005455;28;20026;-64
2023/07/30 03:23:56;;;;;;;2.78;1.30;;;;;;;19.61;98.85;100050.50;5006700;28;20538;-63
2023/07/30 03:26:22;;;;;;;2.88;1.40;;;;;;;19.53;99.00;100043.69;5004314;28;20110;-65
2023/07/30 03:28:47;;;;;;;2.33;1.55;;;;;;;19.61;98.18;100049.75;4999101;28;20058;-64
2023/07/30 03:31:12;;;;;;;2.08;1.45;;;;;;;19.42;98.75;100050.63;5007042;28;20108;-64
2023/07/30 03:33:39;;;;;;;2.58;1.60;;;;;;;19.39;99.56;100048.78;5007040;28;20030;-63
2023/07/30 03:36:05;;;;;;;2.50;1.38;;;;;;;19.36;99.01;100050.38;5000703;28;20069;-64
2023/07/30 03:38:30;;;;;;;2.90;1.33;;;;;;;19.33;99.09;100056.72;5002336;28;20631;-65
2023/07/30 03:40:55;;;;;;;2.13;1.45;;;;;;;19.31;99.19;100064.53;5008161;28;21044;-65
2023/07/30 03:43:21;;;;;;;3.13;1.48;;;;;;;19.31;99.24;100059.09;5010364;28;20045;-64
2023/07/30 03:45:48;;;;;;;1.88;1.27;;;;;;;19.26;99.01;100067.03;5001904;28;20037;-64
2023/07/30 03:48:14;;;;;;;2.85;1.60;;;;;;;19.24;99.12;100061.97;5032681;28;20037;-64
2023/07/30 03:50:39;;;;;;;3.85;1.60;;;;;;;19.23;98.63;100068.63;5004041;28;20026;-64
2023/07/30 03:53:05;;;;;;;2.58;1.63;;;;;;;19.20;98.78;100066.75;5042757;28;20030;-64
2023/07/30 03:55:30;;;;;;;2.65;1.63;;;;;;;19.20;98.74;100069.47;5011100;28;20030;-63
2023/07/30 03:57:56;;;;;;;4.53;1.80;;;;;;;19.21;98.59;100064.78;5009777;28;20116;-63
2023/07/30 04:00:21;;;;;;;2.67;1.60;;;;;;;19.19;98.62;100067.97;5074048;28;20036;-63
2023/07/30 04:02:46;;;;;;;3.55;1.60;;;;;;;19.20;98.69;100066.75;5008890;28;20098;-64
2023/07/30 04:05:12;;;;;;;2.55;1.58;;;;;;;19.15;99.01;100066.50;5010501;28;20126;-64
2023/07/30 04:07:37;;;;;;;2.88;1.58;;;;;;;19.18;98.70;100073.84;5006110;28;20033;-64
2023/07/30 04:10:03;;;;;;;2.45;1.30;;;;;;;19.21;98.91;100065.56;5059782;28;20242;-64
2023/07/30 04:12:29;;;;;;;1.60;1.42;;;;;;;19.19;98.49;100070.69;5077641;28;20045;-64
2023/07/30 04:14:54;;;;;;;6.03;1.60;;;;;;;19.14;98.72;100063.03;5070251;28;20099;-63
2023/07/30 04:17:19;;;;;;;3.63;1.63;;;;;;;19.16;98.63;100068.81;5010441;28;20486;-64
2023/07/30 04:19:47;;;;;;;3.85;1.80;;;;;;;19.16;98.89;100077.00;5011010;28;20471;-63
2023/07/30 04:22:13;;;;;;;2.42;1.42;;;;;;;19.17;98.63;100081.25;5001801;28;20046;-64
2023/07/30 04:24:38;;;;;;;2.72;1.63;;;;;;;19.16;99.23;100082.47;5010117;28;20075;-63
2023/07/30 04:27:04;;;;;;;1.73;1.33;;;;;;;19.17;99.31;100075.81;5064992;28;20039;-63
2023/07/30 04:29:30;;;;;;;2.80;1.40;;;;;;;19.19;99.25;100073.41;5071569;28;20034;-63
2023/07/30 04:31:55;;;;;;;2.17;1.70;;;;;;;19.24;99.36;100075.63;5052882;28;20098;-63
2023/07/30 04:34:21;;;;;;;2.15;1.52;;;;;;;19.28;99.07;100086.47;5071149;28;20424;-65
2023/07/30 04:36:47;;;;;;;2.65;1.45;;;;;;;19.26;99.02;100078.69;5040630;28;20501;-64
2023/07/30 04:39:12;;;;;;;3.03;1.80;;;;;;;19.28;99.01;100079.03;5048720;28;20058;-64
2023/07/30 04:41:38;;;;;;;2.45;1.50;;;;;;;19.34;98.86;100073.84;5077572;28;20030;-65
2023/07/30 04:44:04;;;;;;;2.50;1.50;;;;;;;19.37;98.74;100079.25;5074615;28;20025;-64
2023/07/30 04:46:30;;;;;;;4.93;1.42;;;;;;;19.40;99.09;100075.66;5007843;28;20026;-63
2023/07/30 04:48:56;;;;;;;2.58;1.52;;;;;;;19.38;98.88;100074.53;5078302;28;20057;-64
2023/07/30 04:51:22;;;;;;;4.40;1.80;;;;;;;19.37;99.57;100081.97;5065418;28;20102;-63
2023/07/30 04:53:47;;;;;;;2.38;1.58;;;;;;;19.41;99.47;100085.41;5007078;28;20054;-65
2023/07/30 04:56:13;;;;;;;3.67;1.60;;;;;;;19.40;99.85;100081.13;5045341;28;20036;-63
2023/07/30 04:58:38;;;;;;;1.95;1.20;;;;;;;19.46;99.81;100087.59;5050927;28;20023;-63
2023/07/30 05:01:04;;;;;;;1.23;1.02;;;;;;;19.51;99.87;100091.78;5038405;28;20040;-64
2023/07/30 05:03:29;;;;;;;2.35;1.20;;;;;;;19.59;99.41;100090.38;5049872;28;20402;-63
2023/07/30 05:05:54;;;;;;;2.22;1.27;;;;;;;19.57;99.76;100090.03;5010313;28;20079;-63
2023/07/30 05:08:20;;;;;;;2.63;1.50;;;;;;;19.58;99.90;100089.63;5010125;28;20045;-63
2023/07/30 05:10:45;;;;;;;2.00;1.25;;;;;;;19.66;99.93;100082.81;5002452;28;20038;-63
2023/07/30 05:13:12;;;;;;;3.88;1.60;;;;;;;19.77;98.81;100083.28;5008490;28;20018;-64
2023/07/30 05:15:38;;;;;;;3.92;1.65;;;;;;;19.78;99.29;100078.59;5010088;28;20057;-64
2023/07/30 05:18:03;;;;;;;2.38;1.17;;;;;;;19.95;98.48;100084.75;5003445;28;20406;-64
2023/07/30 05:20:29;;;;;;;3.90;1.88;;;;;;;19.94;98.97;100077.78;5000847;28;21482;-63
2023/07/30 05:22:54;;;;;;;5.35;1.70;;;;;;;19.95;99.27;100077.34;5008322;28;20030;-63
2023/07/30 05:25:20;;;;;;;2.38;1.42;;;;;;;20.01;99.59;100078.34;5004491;28;20073;-63
2023/07/30 05:27:45;;;;;;;2.50;1.60;;;;;;;20.20;98.68;100087.59;5009579;28;20075;-63
2023/07/30 05:30:11;;;;;;;2.15;1.63;;;;;;;20.12;99.51;100083.50;4997597;28;20046;-63
2023/07/30 05:32:36;;;;;;;4.72;2.00;;;;;;;20.17;99.52;100083.00;4992250;28;20029;-64
2023/07/30 05:35:02;;;;;;;2.90;1.80;;;;;;;20.35;99.46;100086.78;5009112;28;20038;-63
2023/07/30 05:37:27;;;;;;;2.88;1.70;;;;;;;20.36;99.33;100084.81;5046685;28;20643;-63
2023/07/30 05:39:52;;;;;;;2.60;1.42;;;;;;;20.55;99.35;100086.59;5032314;28;20443;-64
2023/07/30 05:42:18;;;;;;;2.92;1.60;;;;;;;20.49;98.90;100091.06;5075757;28;20020;-63
2023/07/30 05:44:43;;;;;;;2.97;1.77;;;;;;;20.65;98.34;100086.25;5018137;28;20402;-64
2023/07/30 05:47:09;;;;;;;3.30;1.83;;;;;;;20.78;98.83;100094.50;5009191;28;20517;-64
2023/07/30 05:49:34;;;;;;;2.75;1.67;;;;;;;20.90;98.34;100091.00;5009418;28;20038;-63
2023/07/30 05:51:59;;;;;;;3.45;1.63;;;;;;;20.97;97.34;100085.28;5022118;28;20022;-63
2023/07/30 05:54:25;;;;;;;3.33;1.70;;;;;;;21.01;97.56;100075.03;5009497;28;20494;-63
2023/07/30 05:56:50;;;;;;;3.55;1.83;;;;;;;21.19;96.99;100079.94;5003727;28;20048;-63
2023/07/30 05:59:16;;;;;;;4.70;1.90;;;;;;;21.26;96.35;100075.00;5008947;28;20042;-63
2023/07/30 06:01:41;;;;;;;2.58;1.65;;;;;;;21.28;95.80;100086.28;5004644;28;20018;-63
2023/07/30 06:04:07;;;;;;;6.10;2.95;;;;;;;21.40;94.61;100081.97;5066588;28;20038;-64
2023/07/30 06:06:32;;;;;;;3.45;1.85;;;;;;;21.36;94.62;100087.56;5001234;28;20112;-63
2023/07/30 06:08:57;;;;;;;3.55;1.92;;;;;;;21.32;94.23;100077.94;5008798;28;20033;-64
2023/07/30 06:11:23;;;;;;;3.00;2.00;;;;;;;21.32;93.86;100086.16;5008346;28;20026;-63
2023/07/30 06:13:48;;;;;;;2.40;1.40;;;;;;;21.58;93.46;100084.91;5005738;28;20032;-64
2023/07/30 06:16:14;;;;;;;2.42;1.55;;;;;;;21.69;93.80;100082.56;5008534;28;20038;-64
2023/07/30 06:18:40;;;;;;;2.28;1.50;;;;;;;21.82;93.40;100093.50;5063179;28;20124;-63
2023/07/30 06:21:05;;;;;;;6.28;2.05;;;;;;;22.00;92.83;100097.16;5008674;28;20033;-63
2023/07/30 06:23:31;;;;;;;2.10;1.38;;;;;;;22.15;92.71;100089.94;5002359;28;20487;-63
2023/07/30 06:25:56;;;;;;;10.27;1.83;;;;;;;22.23;90.78;100093.19;5008123;28;20030;-63
2023/07/30 06:28:23;;;;;;;5.38;1.55;;;;;;;22.29;89.80;100091.41;5008589;28;20042;-63
2023/07/30 06:30:48;;;;;;;3.38;1.63;;;;;;;22.23;90.27;100093.97;5008588;28;20037;-64
2023/07/30 06:33:14;;;;;;;1.67;1.30;;;;;;;22.19;90.12;100092.56;5002104;28;20094;-63
2023/07/30 06:35:39;;;;;;;3.45;1.77;;;;;;;22.23;90.60;100098.69;5008376;28;20095;-64
2023/07/30 06:38:08;;;;;;;3.95;1.80;;;;;;;22.29;91.16;100097.66;5026513;28;20182;-64
2023/07/30 06:40:33;;;;;;;4.00;2.15;;;;;;;22.29;90.30;100099.63;5054564;28;20461;-63
2023/07/30 06:42:59;;;;;;;1.35;0.98;;;;;;;22.21;90.65;100098.34;5004576;28;20049;-64
2023/07/30 06:45:24;;;;;;;3.88;1.50;;;;;;;22.24;90.07;100095.47;5008408;28;20089;-63
2023/07/30 06:47:49;;;;;;;1.70;1.10;;;;;;;22.17;89.92;100090.25;5004080;28;20060;-64
2023/07/30 06:50:15;;;;;;;2.08;1.60;;;;;;;21.99;90.74;100101.09;5002834;28;20041;-63
2023/07/30 06:52:40;;;;;;;2.13;1.13;;;;;;;21.87;90.59;100098.41;5006343;28;20022;-64
2023/07/30 06:55:06;;;;;;;3.03;1.75;;;;;;;21.84;90.48;100105.56;5003782;28;20413;-64
2023/07/30 06:57:32;;;;;;;2.60;1.45;;;;;;;21.78;90.69;100107.28;4996054;28;20038;-63
2023/07/30 06:59:58;;;;;;;4.32;1.63;;;;;;;21.67;91.19;100106.91;5009530;28;20034;-62
2023/07/30 07:02:24;;;;;;;2.05;1.30;;;;;;;21.56;92.33;100112.72;5007134;28;20037;-62
2023/07/30 07:04:50;;;;;;;2.55;1.63;;;;;;;21.54;92.74;100106.19;5007827;28;20095;-63
2023/07/30 07:07:15;;;;;;;7.50;2.10;;;;;;;21.54;93.24;100104.19;4998133;28;20079;-63
2023/07/30 07:09:40;;;;;;;4.10;1.90;;;;;;;21.58;93.12;100103.31;5007474;28;20486;-63
2023/07/30 07:12:06;;;;;;;6.15;1.88;;;;;;;21.60;93.11;100103.63;4996874;28;20045;-63
2023/07/30 07:14:32;;;;;;;4.18;1.52;;;;;;;21.64;93.48;100120.72;5008099;28;20038;-63
2023/07/30 07:16:57;;;;;;;3.22;1.50;;;;;;;21.66;93.22;100112.84;5006296;28;20092;-64
2023/07/30 07:19:23;;;;;;;4.20;2.10;;;;;;;21.51;93.50;100118.78;4993443;28;21151;-64
2023/07/30 07:21:48;;;;;;;2.55;1.35;;;;;;;21.60;92.54;100117.34;5004367;28;20479;-63
2023/07/30 07:24:14;;;;;;;5.03;2.03;;;;;;;21.64;91.75;100118.00;5005645;28;20094;-64
2023/07/30 07:26:39;;;;;;;6.10;2.10;;;;;;;21.53;92.82;100121.06;5002787;28;20129;-63
2023/07/30 07:29:05;;;;;;;4.78;2.13;;;;;;;21.60;92.66;100120.84;5006986;28;20034;-62
2023/07/30 07:31:31;;;;;;;2.83;1.75;;;;;;;21.62;93.06;100121.19;5002551;28;20033;-64
2023/07/30 07:33:56;;;;;;;4.35;1.98;;;;;;;21.58;94.20;100123.28;5005246;28;20461;-63
2023/07/30 07:36:22;;;;;;;4.80;2.35;;;;;;;21.68;93.30;100121.38;5003422;28;20026;-64
2023/07/30 07:38:47;;;;;;;4.82;2.05;;;;;;;21.62;94.25;100118.44;5005826;28;20167;-63
2023/07/30 07:41:16;;;;;;;3.17;2.22;;;;;;;21.73;93.70;100118.06;5004455;28;20056;-64
2023/07/30 07:43:43;;;;;;;2.60;2.05;;;;;;;21.89;93.71;100126.16;4998759;28;20036;-63
2023/07/30 07:46:13;;;;;;;3.75;1.98;;;;;;;21.91;93.57;100119.00;5010411;28;20041;-62
2023/07/30 07:48:44;;;;;;;2.97;1.90;;;;;;;22.01;93.40;100123.34;5005284;28;20022;-63
2023/07/30 07:51:11;;;;;;;3.15;2.03;;;;;;;22.06;92.64;100124.78;5005606;28;20501;-64
2023/07/30 07:53:37;;;;;;;3.22;2.33;;;;;;;22.06;92.65;100133.78;5004993;28;20060;-64
2023/07/30 07:56:03;;;;;;;5.85;2.05;;;;;;;22.15;93.05;100124.84;5004781;28;20069;-63
2023/07/30 07:58:28;;;;;;;2.95;2.00;;;;;;;22.35;93.12;100130.78;5005223;28;20045;-63
2023/07/30 08:00:55;;;;;;;9.82;2.30;;;;;;;22.50;92.53;100120.81;5002942;28;20045;-64
2023/07/30 08:03:21;;;;;;;4.88;2.10;;;;;;;22.59;91.23;100118.13;5004231;28;20078;-62
2023/07/30 08:05:47;;;;;;;5.00;2.25;;;;;;;23.01;90.32;100110.25;5002147;28;20491;-63
2023/07/30 08:08:13;;;;;;;6.20;2.53;;;;;;;23.37;89.98;100115.09;5003490;28;20033;-61
2023/07/30 08:10:59;;;;;;;3.03;2.05;;;;;;;23.51;88.39;100117.28;5006089;28;20498;-63
2023/07/30 08:13:24;;;;;;;4.45;2.28;;;;;;;23.86;86.98;100116.56;5007802;28;20534;-62
2023/07/30 08:15:50;;;;;;;3.33;1.73;;;;;;;24.11;85.22;100121.00;5004676;28;20049;-63
2023/07/30 08:18:15;;;;;;;6.05;1.98;;;;;;;24.07;84.56;100128.66;5001934;28;20564;-63
2023/07/30 08:20:41;;;;;;;2.70;1.95;;;;;;;24.22;83.15;100120.53;5010073;28;20037;-62
2023/07/30 08:23:06;;;;;;;4.45;1.67;;;;;;;24.26;83.06;100118.38;5005947;28;20041;-63
2023/07/30 08:25:32;;;;;;;2.80;1.60;;;;;;;24.58;82.07;100126.00;5004892;28;20108;-62
2023/07/30 08:27:57;;;;;;;2.97;1.40;;;;;;;24.63;80.27;100119.84;5007802;28;20042;-62
2023/07/30 08:30:23;;;;;;;2.40;1.77;;;;;;;24.71;80.11;100121.81;5008974;28;20108;-62
2023/07/30 08:32:48;;;;;;;5.05;1.30;;;;;;;24.79;79.78;100122.28;4998574;28;20076;-63
2023/07/30 08:35:14;;;;;;;2.95;1.50;;;;;;;24.82;79.61;100115.81;5012197;28;21815;-62
2023/07/30 08:37:39;;;;;;;6.18;1.38;;;;;;;24.99;78.60;100122.50;5010327;28;20549;-62
2023/07/30 08:40:05;;;;;;;2.15;1.25;;;;;;;25.10;77.29;100130.25;5010194;28;20038;-62
2023/07/30 08:42:32;;;;;;;7.53;1.67;;;;;;;24.98;77.63;100119.00;5006810;28;20108;-63
2023/07/30 08:44:57;;;;;;;2.05;0.98;;;;;;;24.90;78.41;100117.03;5012445;28;20522;-62
2023/07/30 08:47:23;;;;;;;1.02;0.85;;;;;;;25.11;78.50;100115.25;5007266;28;20048;-63
2023/07/30 08:49:48;;;;;;;4.30;1.30;;;;;;;25.01;74.32;100107.03;5001680;28;20050;-61
2023/07/30 08:52:16;;;;;;;2.05;1.15;;;;;;;25.13;74.72;100116.31;5000037;28;20522;-62
2023/07/30 08:54:44;;;;;;;4.72;1.08;;;;;;;25.26;72.82;100113.34;5008347;28;20579;-62
2023/07/30 08:57:10;;;;;;;2.20;1.02;;;;;;;25.15;73.20;100116.59;5005102;28;20034;-63
2023/07/30 08:59:49;;;;;;;2.55;1.20;;;;;;;24.95;77.14;100114.41;5007623;28;20046;-61
2023/07/30 09:02:24;;;;;;;3.40;1.40;;;;;;;25.14;76.14;100117.06;5001314;28;20038;-61
2023/07/30 09:04:56;;;;;;;3.22;0.90;;;;;;;25.31;75.27;100123.72;5076463;28;20125;-61
2023/07/30 09:07:24;;;;;;;2.13;0.65;;;;;;;25.45;72.26;100117.53;5015065;28;20044;-62
2023/07/30 09:09:50;;;;;;;2.92;1.00;;;;;;;25.36;73.47;100128.63;5025575;28;20483;-62
2023/07/30 09:12:16;;;;;;;2.33;1.10;;;;;;;25.33;73.08;100121.25;5003071;28;20026;-63
2023/07/30 09:14:44;;;;;;;2.03;0.70;;;;;;;25.34;72.69;100125.56;5009573;28;20046;-62
2023/07/30 09:17:16;;;;;;;1.52;0.70;;;;;;;25.36;74.13;100128.63;5073367;28;20744;-63
2023/07/30 09:19:41;;;;;;;2.08;1.02;;;;;;;25.43;72.33;100131.03;5009762;28;20529;-62
2023/07/30 09:22:07;;;;;;;2.03;0.80;;;;;;;25.66;72.47;100131.06;5008127;28;20121;-62
2023/07/30 09:24:32;;;;;;;1.27;0.82;;;;;;;25.44;72.08;100132.56;5000905;28;20088;-63
2023/07/30 09:27:02;;;;;;;1.25;0.85;;;;;;;25.46;71.12;100138.38;5013788;28;20021;-63
2023/07/30 09:29:27;;;;;;;3.80;1.08;;;;;;;25.23;70.88;100137.09;5009599;28;20030;-62
2023/07/30 09:31:54;;;;;;;2.10;0.85;;;;;;;25.19;71.54;100138.47;5006999;28;20744;-62
2023/07/30 09:34:21;;;;;;;4.68;0.95;;;;;;;25.00;71.58;100130.31;5003290;28;20030;-62
2023/07/30 09:36:49;;;;;;;1.63;0.65;;;;;;;25.09;70.95;100137.03;5008998;28;20045;-62
2023/07/30 09:39:26;;;;;;;0.60;0.50;;;;;;;24.93;71.88;100130.63;5008982;28;20131;-61
2023/07/30 09:41:59;;;;;;;3.40;1.05;;;;;;;25.00;71.54;100133.06;4995852;28;20034;-61
2023/07/30 09:44:24;;;;;;;1.65;0.68;;;;;;;24.77;72.09;100138.50;5005729;28;20026;-61
2023/07/30 09:46:51;;;;;;;1.02;0.70;;;;;;;24.80;73.19;100138.34;5009593;28;20116;-62
2023/07/30 09:49:18;;;;;;;1.98;0.70;;;;;;;24.71;74.37;100149.38;5008404;28;20401;-62
2023/07/30 09:51:43;;;;;;;1.08;0.63;;;;;;;24.78;74.58;100140.03;4998341;28;20049;-63
2023/07/30 09:54:13;;;;;;;2.38;0.75;;;;;;;24.84;73.97;100140.94;5010278;28;20030;-62
2023/07/30 09:56:40;;;;;;;0.50;0.50;;;;;;;24.96;71.61;100140.75;5006106;28;20462;-62
2023/07/30 09:59:07;;;;;;;2.65;1.75;;;;;;;24.92;69.56;100137.38;5033756;28;20109;-62
2023/07/30 10:01:44;;;;;;;1.42;0.63;;;;;;;24.94;68.83;100136.91;5009759;28;20478;-62
2023/07/30 10:04:10;;;;;;;0.90;0.63;;;;;;;24.93;70.12;100146.44;5003243;28;20034;-63
2023/07/30 10:06:40;;;;;;;1.83;0.93;;;;;;;24.97;69.28;100139.50;4998890;28;20030;-63
2023/07/30 10:09:08;;;;;;;0.63;0.63;;;;;;;24.89;69.56;100149.31;5069665;28;20139;-63
2023/07/30 10:11:36;;;;;;;0.63;0.57;;;;;;;24.93;69.52;100149.94;5006176;28;20110;-62
2023/07/30 10:14:22;;;;;;;1.05;0.55;;;;;;;24.80;69.19;100148.59;5014492;28;20429;-62
2023/07/30 10:16:52;;;;;;;0.60;0.47;;;;;;;24.82;69.02;100149.66;5027604;28;20073;-61
2023/07/30 10:19:22;;;;;;;1.17;0.70;;;;;;;24.89;69.64;100152.09;5028309;28;20055;-61
2023/07/30 10:21:48;;;;;;;1.65;0.75;;;;;;;24.83;69.72;100158.69;5026817;28;20129;-62
2023/07/30 10:24:13;;;;;;;1.27;0.70;;;;;;;24.84;69.00;100155.47;5028788;28;20115;-61
2023/07/30 10:26:39;;;;;;;4.07;0.77;;;;;;;24.77;69.52;100157.78;5038316;28;20029;-62
2023/07/30 10:29:20;;;;;;;1.02;0.80;;;;;;;24.97;68.28;100155.28;5027632;28;20049;-62
2023/07/30 10:31:54;;;;;;;3.55;0.80;;;;;;;25.14;67.10;100155.66;5036414;28;20044;-61
2023/07/30 10:34:20;;;;;;;4.65;0.95;;;;;;;25.42;66.71;100159.84;5028465;28;20044;-62
2023/07/30 10:36:50;;;;;;;4.13;0.63;;;;;;;25.47;67.26;100153.69;5026416;28;20116;-64
2023/07/30 10:39:20;;;;;;;0.85;0.75;;;;;;;25.68;65.52;100152.66;5022467;28;20056;-62
2023/07/30 10:41:49;;;;;;;1.27;0.88;;;;;;;25.69;64.33;100154.94;5025587;28;20140;-62
2023/07/30 10:44:21;;;;;;;2.33;0.98;;;;;;;25.73;64.47;100163.78;5024449;28;20038;-63
2023/07/30 10:46:47;;;;;;;2.45;0.68;;;;;;;25.66;65.45;100160.63;5028066;28;20045;-62
2023/07/30 10:49:12;;;;;;;2.53;0.90;;;;;;;25.74;63.35;100170.84;5031004;28;20033;-62
2023/07/30 10:51:38;;;;;;;4.38;0.75;;;;;;;25.73;63.16;100160.25;5027903;28;20490;-65
2023/07/30 10:54:09;;;;;;;1.60;0.82;;;;;;;25.80;63.18;100171.72;5048177;28;20490;-61
2023/07/30 10:56:37;;;;;;;1.13;0.50;;;;;;;25.65;63.45;100179.16;5002763;28;20518;-62
2023/07/30 10:59:07;;;;;;;0.75;0.55;;;;;;;25.52;64.28;100169.59;5018875;28;20094;-62
2023/07/30 11:01:43;;;;;;;1.88;0.73;;;;;;;25.49;63.55;100176.06;5013127;28;20034;-61
2023/07/30 11:04:14;;;;;;;1.05;0.57;;;;;;;25.41;63.88;100172.13;5000565;28;20042;-62
2023/07/30 11:06:44;;;;;;;;;;;;;;;25.33;63.39;100173.66;4998199;28;20040;-63
2023/07/30 11:09:38;;;;;;;2.58;0.82;;;;;;;25.30;64.34;100172.59;5003353;28;19953;-63
2023/07/30 11:12:04;;;;;;;2.05;0.57;;;;;;;25.20;65.21;100170.34;5019837;28;20053;-62
2023/07/30 11:14:29;;;;;;;0.43;0.40;;;;;;;25.08;64.67;100174.06;5018427;28;20038;-62
2023/07/30 11:17:00;;;;;;;0.90;0.75;;;;;;;25.08;63.42;100161.06;5024817;28;20049;-62
2023/07/30 11:19:27;;;;;;;0.70;0.60;;;;;;;25.04;62.83;100164.00;5012212;28;20045;-62
2023/07/30 11:21:56;;;;;;;1.55;0.60;;;;;;;24.89;63.76;100168.63;5023065;28;20116;-62